Time;durP1;ratioP1;P1;durP2;ratioP2;P2;SDS_P1;SDS_P2;PMS_P1;PMS_P2;Temp;Humidity;BMP_temperature;BMP_pressure;BME280_temperature;BME280_humidity;BME280_pressure;Samples;Min_cycle;Max_cycle;Signal;HPM_P1;HPM_P2
2022/06/14 00:00:53;;;;;;;3.30;1.30;;;12.90;99.90;;;-141.84;64.38;19021.31;5010699;28;20229;-61
2022/06/14 00:03:23;;;;;;;2.30;1.30;;;12.90;99.90;;;-141.84;65.20;19078.19;5011067;28;20222;-60
2022/06/14 00:05:52;;;;;;;2.37;1.50;;;12.90;99.90;;;-141.84;65.47;19049.75;5010988;28;20226;-59
2022/06/14 00:08:25;;;;;;;1.63;1.33;;;12.80;99.90;;;-141.84;65.49;18986.75;5011210;28;20202;-58
2022/06/14 00:10:55;;;;;;;4.43;1.27;;;12.80;99.90;;;-141.84;66.89;19029.44;5010536;28;20630;-59
2022/06/14 00:13:25;;;;;;;4.77;1.60;;;12.70;99.90;;;-141.84;67.66;18974.56;5010779;28;20235;-60
2022/06/14 00:15:55;;;;;;;2.23;1.47;;;12.70;99.90;;;-141.84;66.73;19021.31;5020894;28;20739;-59
2022/06/14 00:18:23;;;;;;;3.93;1.60;;;12.70;99.90;;;-141.84;66.95;19033.50;5030371;28;20228;-60
2022/06/14 00:20:52;;;;;;;1.63;1.50;;;12.70;99.90;;;-141.84;66.47;19005.03;5019067;28;20760;-58
2022/06/14 00:23:22;;;;;;;1.93;1.63;;;12.60;99.90;;;-141.84;66.22;18988.78;5011246;28;20195;-60
2022/06/14 00:25:54;;;;;;;1.77;1.47;;;12.70;99.90;;;-141.84;67.35;19000.97;5010563;28;20325;-59
2022/06/14 00:28:24;;;;;;;2.47;1.70;;;12.60;99.90;;;-141.84;67.52;19037.56;5010574;28;20603;-58
2022/06/14 00:30:57;;;;;;;3.17;1.43;;;12.60;99.90;;;-141.84;67.94;18992.84;5021842;28;20257;-59
2022/06/14 00:33:26;;;;;;;2.87;1.60;;;12.60;99.90;;;-141.84;68.36;18980.66;5030296;28;20305;-59
2022/06/14 00:36:01;;;;;;;3.30;1.90;;;12.50;99.90;;;-141.84;67.25;19007.06;5030258;28;20280;-59
2022/06/14 00:38:29;;;;;;;4.17;1.60;;;12.50;99.90;;;-141.84;68.46;18980.66;5028609;28;20705;-58
2022/06/14 00:41:00;;;;;;;2.73;1.73;;;12.50;99.90;;;-141.84;68.30;18988.78;5010175;28;20226;-59
2022/06/14 00:43:31;;;;;;;2.80;1.60;;;12.50;99.90;;;-141.84;68.51;18974.56;5010390;28;20273;-60
2022/06/14 00:46:15;;;;;;;3.63;1.53;;;12.50;99.90;;;-141.84;67.90;18988.78;5010085;28;20237;-59
2022/06/14 00:48:51;;;;;;;6.03;1.97;;;12.50;99.90;;;-141.84;67.31;18968.47;5010313;28;20233;-59
2022/06/14 00:51:26;;;;;;;3.77;1.67;;;12.50;99.90;;;-141.84;67.26;19025.38;5025481;28;20218;-59
2022/06/14 00:54:03;;;;;;;3.87;1.60;;;12.50;99.90;;;-141.84;66.61;18988.78;5029969;28;20221;-59
2022/06/14 00:56:42;;;;;;;2.33;1.50;;;12.60;99.90;;;-141.84;67.07;19005.03;5030154;28;20657;-58
2022/06/14 00:59:18;;;;;;;3.10;1.57;;;12.50;99.90;;;-141.84;67.90;18984.72;5030193;28;20212;-60
2022/06/14 01:01:53;;;;;;;3.33;1.83;;;12.50;99.90;;;-141.84;67.82;18978.63;5029678;28;20225;-59
2022/06/14 01:04:28;;;;;;;4.90;1.60;;;12.50;99.90;;;-141.84;67.46;18998.94;5029806;28;20324;-60
2022/06/14 01:07:03;;;;;;;3.43;1.60;;;12.40;99.90;;;-141.84;67.38;18982.69;5029631;28;20716;-58
2022/06/14 01:09:39;;;;;;;2.63;1.50;;;12.40;99.90;;;-141.84;67.53;18996.91;5029863;28;20229;-59
2022/06/14 01:12:12;;;;;;;2.63;1.80;;;12.40;99.90;;;-141.84;66.58;18996.91;5029566;28;20221;-57
2022/06/14 01:14:48;;;;;;;1.97;1.77;;;12.50;99.90;;;-141.84;67.12;19045.69;5029836;28;20277;-59
2022/06/14 01:17:18;;;;;;;3.77;2.40;;;12.50;99.90;;;-141.84;67.26;19009.09;5017629;28;20202;-58
2022/06/14 01:19:47;;;;;;;2.80;2.50;;;12.50;99.90;;;-141.84;67.11;18988.78;5009711;28;20231;-59
2022/06/14 01:22:33;;;;;;;4.40;2.60;;;12.50;99.90;;;-141.84;68.55;18970.50;5009799;28;20626;-58
2022/06/14 01:25:02;;;;;;;3.43;2.63;;;12.50;99.90;;;-141.84;69.82;18950.19;5012481;28;20226;-58
2022/06/14 01:27:34;;;;;;;3.70;2.70;;;12.40;99.90;;;-141.84;70.69;18905.47;5013901;28;20313;-60
2022/06/14 01:30:14;;;;;;;3.17;2.43;;;12.30;99.90;;;-141.84;72.17;18893.28;5018466;28;20317;-60
2022/06/14 01:32:50;;;;;;;3.63;2.40;;;12.10;99.90;;;-141.84;71.59;18907.50;5033437;28;20628;-59
2022/06/14 01:35:24;;;;;;;5.50;2.20;;;12.10;99.90;;;-141.84;70.90;18940.03;5027372;28;20194;-59
2022/06/14 01:37:58;;;;;;;5.03;2.40;;;12.10;99.90;;;-141.84;70.82;18931.91;5013573;28;20231;-58
2022/06/14 01:40:37;;;;;;;5.23;2.17;;;12.10;99.90;;;-141.84;72.06;18877.03;5013679;28;20234;-59
2022/06/14 01:43:37;;;;;;;3.90;2.43;;;12.00;99.90;;;-141.84;72.64;18850.63;5013447;28;20767;-58
2022/06/14 01:46:21;;;;;;;4.20;2.30;;;12.00;99.90;;;-141.84;72.69;18862.81;5013622;28;20234;-60
2022/06/14 01:52:02;;;;;;;3.90;2.50;;;11.90;99.90;;;-141.84;72.09;18875.00;5032925;28;20232;-59
2022/06/14 01:54:44;;;;;;;2.10;1.90;;;11.90;99.90;;;-141.84;72.51;18872.97;5033431;28;20335;-57
2022/06/14 01:57:24;;;;;;;3.03;1.87;;;11.90;99.90;;;-141.84;71.70;18848.59;5033104;28;20224;-58
2022/06/14 02:00:07;;;;;;;2.97;1.90;;;11.90;99.90;;;-141.84;71.77;18911.56;5033166;28;20202;-60
2022/06/14 02:02:45;;;;;;;4.00;2.27;;;11.90;99.90;;;-141.84;72.11;18907.50;5033460;28;20183;-59
2022/06/14 02:05:23;;;;;;;3.23;2.00;;;11.90;99.90;;;-141.84;73.55;18879.06;5013421;28;20224;-57
2022/06/14 02:07:59;;;;;;;4.53;2.03;;;11.80;99.90;;;-141.84;72.13;18919.69;5013100;28;20232;-60
2022/06/14 02:10:40;;;;;;;3.50;1.90;;;11.80;99.90;;;-141.84;72.41;18903.44;5013142;28;20230;-57
2022/06/14 02:13:16;;;;;;;3.30;2.03;;;11.80;99.90;;;-141.84;71.75;18905.47;5013059;28;20309;-58
2022/06/14 02:15:53;;;;;;;2.33;2.13;;;11.90;99.90;;;-141.84;70.71;18940.03;5013329;28;20309;-60
2022/06/14 02:18:29;;;;;;;3.23;2.30;;;12.00;99.90;;;-141.84;71.58;18883.13;5013075;28;20306;-61
2022/06/14 02:21:03;;;;;;;6.10;2.40;;;12.00;99.90;;;-141.84;71.11;18929.88;5012876;28;20734;-59
2022/06/14 02:23:40;;;;;;;2.53;2.33;;;12.10;99.90;;;-141.84;71.91;18875.00;5013421;28;20268;-59
2022/06/14 02:26:17;;;;;;;4.77;2.67;;;12.00;99.90;;;-141.84;73.03;18897.34;5013051;28;20675;-58
2022/06/14 02:28:53;;;;;;;3.13;2.63;;;12.00;99.90;;;-141.84;73.17;18834.38;5012720;28;20317;-59
2022/06/14 02:31:28;;;;;;;5.23;2.70;;;11.90;99.90;;;-141.84;72.48;18925.81;5013309;28;20309;-60
2022/06/14 02:34:05;;;;;;;3.40;2.80;;;11.90;99.90;;;-141.84;71.97;18915.63;5001818;28;20746;-60
2022/06/14 02:36:39;;;;;;;4.23;2.73;;;11.90;99.90;;;-141.84;72.16;18903.44;4993171;28;20223;-60
2022/06/14 02:39:15;;;;;;;4.07;2.70;;;12.00;99.90;;;-141.84;72.82;18887.19;4993156;28;20645;-60
2022/06/14 02:41:54;;;;;;;4.23;2.57;;;11.90;99.90;;;-141.84;73.13;18883.13;4992851;28;20225;-59
2022/06/14 02:44:29;;;;;;;2.70;2.50;;;11.80;99.90;;;-141.84;73.16;18875.00;4993959;28;20274;-62
2022/06/14 02:47:08;;;;;;;4.87;2.60;;;11.80;99.90;;;-141.84;72.54;18895.31;5003375;28;20240;-59
2022/06/14 02:49:43;;;;;;;4.40;2.30;;;11.80;99.90;;;-141.84;73.33;18889.22;5012477;28;20226;-61
2022/06/14 02:52:21;;;;;;;3.83;2.57;;;11.80;99.90;;;-141.84;73.06;18860.78;5012735;28;20308;-61
2022/06/14 02:55:00;;;;;;;5.03;2.97;;;11.80;99.90;;;-141.84;73.50;18860.78;5012561;28;20222;-61
2022/06/14 02:57:39;;;;;;;5.60;2.60;;;11.80;99.90;;;-141.84;73.51;18860.78;5012534;28;20464;-60
2022/06/14 03:00:13;;;;;;;2.80;2.50;;;11.80;99.90;;;-141.84;73.50;18891.25;5012577;28;20232;-59
2022/06/14 03:02:50;;;;;;;5.50;2.70;;;11.80;99.90;;;-141.84;73.39;18889.22;5012515;28;20190;-60
2022/06/14 03:05:32;;;;;;;4.10;2.77;;;11.90;99.90;;;-141.84;73.75;18852.66;5013145;28;20277;-60
2022/06/14 03:08:09;;;;;;;4.80;2.60;;;11.80;99.90;;;-141.84;75.37;18838.44;5012313;28;20250;-60
2022/06/14 03:10:47;;;;;;;4.67;2.40;;;11.70;99.90;;;-141.84;76.69;18814.03;4992964;28;20315;-60
2022/06/14 03:13:30;;;;;;;3.37;2.40;;;11.70;99.90;;;-141.84;77.55;18793.72;4992529;28;20255;-61
2022/06/14 03:16:19;;;;;;;4.13;2.80;;;11.60;99.90;;;-141.84;76.67;18807.94;4992735;28;20310;-60
2022/06/14 03:19:00;;;;;;;4.03;2.83;;;11.60;99.90;;;-141.84;76.33;18822.19;4992455;28;20223;-60
2022/06/14 03:21:38;;;;;;;4.60;2.60;;;11.60;99.90;;;-141.84;76.95;18809.97;4992686;28;20233;-58
2022/06/14 03:24:14;;;;;;;4.33;2.40;;;11.60;99.90;;;-141.84;77.50;18783.56;4992850;28;20310;-60
2022/06/14 03:26:54;;;;;;;4.37;2.50;;;11.60;99.90;;;-141.84;77.28;18785.59;4992359;28;20213;-60
2022/06/14 03:29:35;;;;;;;3.63;2.60;;;11.60;99.90;;;-141.84;76.81;18795.75;4992522;28;20210;-60
2022/06/14 03:32:14;;;;;;;3.73;3.03;;;11.70;99.90;;;-141.84;77.20;18805.91;4992724;28;20257;-60
2022/06/14 03:34:49;;;;;;;7.60;3.00;;;11.60;99.90;;;-141.84;77.93;18787.63;4991949;28;20231;-60
2022/06/14 03:37:17;;;;;;;4.23;2.40;;;11.60;99.90;;;-141.84;77.28;18805.91;4992344;28;20252;-61
2022/06/14 03:39:51;;;;;;;4.90;2.57;;;11.60;99.90;;;-141.84;77.32;18809.97;4992216;28;20314;-60
2022/06/14 03:42:20;;;;;;;5.10;2.63;;;11.70;99.90;;;-141.84;77.33;18846.56;4994652;28;20222;-61
2022/06/14 03:44:50;;;;;;;6.43;2.73;;;11.70;99.90;;;-141.84;76.01;18834.38;5011561;28;20218;-60
2022/06/14 03:47:23;;;;;;;3.60;2.17;;;11.80;99.90;;;-141.84;75.58;18830.31;5011954;28;20219;-60
2022/06/14 03:49:57;;;;;;;4.67;2.73;;;11.90;99.90;;;-141.84;76.77;18816.06;5011033;28;20237;-61
2022/06/14 03:52:52;;;;;;;5.07;2.77;;;11.90;99.90;;;-141.84;75.70;18820.16;5011754;28;20776;-61
2022/06/14 03:55:42;;;;;;;3.80;2.37;;;12.00;99.90;;;-141.84;74.68;18858.75;5011399;28;20223;-60
2022/06/14 03:58:29;;;;;;;2.60;2.00;;;12.10;99.90;;;-141.84;75.38;18866.88;5011552;28;20256;-61
2022/06/14 04:01:04;;;;;;;4.07;2.50;;;12.20;99.90;;;-141.84;73.68;18919.69;5011356;28;20226;-60
2022/06/14 04:04:03;;;;;;;3.97;2.77;;;12.30;99.90;;;-141.84;72.43;18893.28;5011495;28;20305;-60
2022/06/14 04:06:47;;;;;;;4.77;2.80;;;12.40;99.90;;;-141.84;72.78;18889.22;5001919;28;20222;-62
2022/06/14 04:09:32;;;;;;;3.30;2.30;;;12.40;99.90;;;-141.84;73.44;18893.28;5011201;28;20226;-59
2022/06/14 04:12:19;;;;;;;6.20;2.90;;;12.40;99.90;;;-141.84;73.36;18895.31;5011245;28;20226;-60
2022/06/14 04:15:12;;;;;;;6.37;2.73;;;12.30;99.90;;;-141.84;72.32;18907.50;5010934;28;20278;-61
2022/06/14 04:17:52;;;;;;;5.27;3.00;;;12.40;99.90;;;-141.84;72.48;18913.59;5011214;28;20278;-61
2022/06/14 04:20:30;;;;;;;5.10;2.60;;;12.50;99.90;;;-141.84;70.55;18954.25;5011242;28;20273;-60
2022/06/14 04:23:10;;;;;;;4.60;2.43;;;12.60;99.90;;;-141.84;67.46;19019.28;5010988;28;20714;-60
2022/06/14 04:25:45;;;;;;;7.60;2.67;;;12.80;99.90;;;-141.84;67.10;19011.13;5027180;28;20317;-60
2022/06/14 04:28:21;;;;;;;4.57;2.47;;;13.00;99.90;;;-141.84;66.21;19049.75;5017245;28;20304;-60
2022/06/14 04:31:02;;;;;;;3.13;2.33;;;13.30;99.90;;;-141.84;65.49;19074.13;5010978;28;20246;-60
2022/06/14 04:33:39;;;;;;;4.13;2.80;;;13.40;99.90;;;-141.84;65.88;19074.13;5011117;28;20233;-60
2022/06/14 04:36:15;;;;;;;4.00;2.43;;;13.50;99.90;;;-141.84;64.88;19092.41;5010816;28;20312;-61
2022/06/14 04:38:51;;;;;;;4.20;2.37;;;13.60;99.90;;;-141.84;64.78;19033.50;5010746;28;20217;-61
2022/06/14 04:41:27;;;;;;;7.63;2.63;;;13.60;99.90;;;-141.84;64.16;19086.31;5042352;28;20313;-60
2022/06/14 04:44:02;;;;;;;4.67;2.53;;;13.70;99.90;;;-141.84;63.59;19104.59;5010768;28;20441;-60
2022/06/14 04:46:38;;;;;;;4.70;2.43;;;13.80;99.90;;;-141.84;62.33;19122.91;5010430;28;20781;-61
2022/06/14 04:49:15;;;;;;;5.13;2.10;;;13.90;99.90;;;-141.84;60.79;19145.25;5010504;28;20234;-60
2022/06/14 04:51:49;;;;;;;4.45;2.10;;;14.10;99.90;;;-141.84;58.75;19283.44;5010355;28;20276;-61
2022/06/14 04:54:25;;;;;;;3.33;2.17;;;14.60;99.90;;;-141.84;56.93;19354.56;5010810;28;20309;-60
2022/06/14 04:57:05;;;;;;;2.55;1.92;;;15.40;99.90;;;-141.84;51.72;19539.47;5010135;28;20703;-60
2022/06/14 04:59:40;;;;;;;3.92;1.83;;;16.00;99.90;;;-141.84;50.16;19602.47;5009513;28;20279;-60
2022/06/14 05:02:14;;;;;;;3.08;2.10;;;16.50;99.90;;;-141.84;46.43;19783.34;5002087;28;20219;-60
2022/06/14 05:04:52;;;;;;;6.20;2.28;;;17.10;99.90;;;-141.84;44.79;19917.50;5027203;28;20231;-60
2022/06/14 05:07:29;;;;;;;4.55;2.00;;;17.70;99.90;;;-141.84;42.92;20080.09;5029961;28;20234;-61
2022/06/14 05:10:06;;;;;;;4.32;2.00;;;18.20;99.90;;;-141.84;42.72;20074.00;5030017;28;20234;-61
2022/06/14 05:12:50;;;;;;;5.25;2.42;;;18.50;99.90;;;-141.84;41.77;20157.31;5029920;28;20225;-60
2022/06/14 05:15:23;;;;;;;4.53;2.20;;;18.70;99.90;;;-141.84;40.32;20242.69;5029877;28;20221;-60
2022/06/14 05:18:00;;;;;;;5.78;2.13;;;18.80;99.90;;;-141.84;40.20;20240.66;5030097;28;20269;-61
2022/06/14 05:20:38;;;;;;;4.65;2.20;;;19.10;99.90;;;-141.84;40.89;20179.69;5029922;28;20768;-60
2022/06/14 05:23:16;;;;;;;3.95;2.00;;;18.90;99.90;;;-141.84;40.53;20222.38;5030626;28;20538;-61
2022/06/14 05:25:57;;;;;;;4.50;2.00;;;19.00;99.90;;;-141.84;40.17;20250.81;5029734;28;20225;-63
2022/06/14 05:28:38;;;;;;;3.38;1.90;;;19.30;99.90;;;-141.84;39.97;20256.91;5029935;28;20256;-60
2022/06/14 05:31:21;;;;;;;3.75;1.88;;;19.50;99.90;;;-141.84;40.08;20260.97;5029733;28;20236;-61
2022/06/14 05:34:01;;;;;;;6.20;2.50;;;19.40;99.90;;;-141.84;41.65;20059.75;5029375;28;20222;-61
2022/06/14 05:36:37;;;;;;;5.07;1.90;;;18.90;99.90;;;-141.84;41.79;20082.13;5029614;28;20268;-60
2022/06/14 05:39:16;;;;;;;3.20;2.10;;;18.60;99.90;;;-141.84;42.08;20096.34;5029704;28;20613;-60
2022/06/14 05:41:49;;;;;;;6.63;2.53;;;18.50;99.90;;;-141.84;42.73;20000.81;5029321;28;20220;-60
2022/06/14 05:44:31;;;;;;;6.65;1.95;;;18.30;99.90;;;-141.84;44.18;19923.59;5029984;28;20668;-60
2022/06/14 05:47:08;;;;;;;3.17;1.75;;;18.00;99.90;;;-141.84;45.26;19860.59;5029447;28;20236;-61
2022/06/14 05:49:45;;;;;;;4.80;2.08;;;17.90;99.90;;;-141.84;46.76;19761.00;5029713;28;20284;-61
2022/06/14 05:52:20;;;;;;;6.40;2.13;;;17.60;99.90;;;-141.84;47.34;19689.88;5029515;28;20232;-61
2022/06/14 05:54:58;;;;;;;4.03;1.85;;;17.20;99.90;;;-141.84;46.76;19708.16;5029571;28;20217;-60
2022/06/14 05:57:32;;;;;;;3.53;2.10;;;17.10;99.90;;;-141.84;48.03;19667.50;5029303;28;20249;-59
2022/06/14 06:00:10;;;;;;;4.18;2.13;;;16.90;99.90;;;-141.84;49.14;19643.13;5029646;28;20659;-61
2022/06/14 06:02:49;;;;;;;4.80;2.50;;;17.00;99.90;;;-141.84;49.56;19632.97;5029534;28;20190;-60
2022/06/14 06:05:25;;;;;;;3.88;1.90;;;17.10;99.90;;;-141.84;47.39;19710.19;5030142;28;20186;-60
2022/06/14 06:08:05;;;;;;;6.90;2.17;;;17.20;99.90;;;-141.84;46.87;19728.47;5029095;28;20249;-59
2022/06/14 06:10:39;;;;;;;4.22;1.85;;;17.20;99.90;;;-141.84;46.85;19720.34;5031077;28;20228;-61
2022/06/14 06:13:15;;;;;;;3.58;2.05;;;17.20;99.90;;;-141.84;47.07;19716.28;5033244;28;20264;-61
2022/06/14 06:15:52;;;;;;;4.38;1.92;;;17.20;99.90;;;-141.84;46.99;19698.00;5033985;28;20217;-61
2022/06/14 06:18:26;;;;;;;3.90;1.80;;;17.00;99.90;;;-141.84;46.76;19756.94;5014034;28;20218;-61
2022/06/14 06:21:02;;;;;;;4.30;2.00;;;17.10;99.90;;;-141.84;47.78;19708.16;5013645;28;20710;-61
2022/06/14 06:23:41;;;;;;;5.03;1.77;;;17.20;99.90;;;-141.84;46.73;19736.59;5014463;28;20187;-61
2022/06/14 06:26:13;;;;;;;2.42;1.52;;;17.30;99.90;;;-141.84;46.82;19750.84;5014082;28;20713;-62
2022/06/14 06:28:49;;;;;;;2.53;1.73;;;17.30;99.90;;;-141.84;46.26;19769.13;5013657;28;20322;-61
2022/06/14 06:31:25;;;;;;;4.72;1.80;;;17.50;99.90;;;-141.84;46.55;19740.69;5028288;28;20240;-61
2022/06/14 06:33:59;;;;;;;5.03;2.08;;;17.50;99.90;;;-141.84;46.19;19781.31;5022528;28;20229;-60
2022/06/14 06:36:45;;;;;;;4.65;1.50;;;17.40;99.90;;;-141.84;46.89;19773.19;5010811;28;20230;-61
2022/06/14 06:39:31;;;;;;;6.97;2.15;;;17.60;99.90;;;-141.84;45.59;19830.09;5014018;28;20297;-62
2022/06/14 06:42:11;;;;;;;1.83;1.42;;;17.70;99.90;;;-141.84;45.66;19773.19;5013437;28;20337;-61
2022/06/14 06:44:50;;;;;;;4.22;2.08;;;17.70;99.90;;;-141.84;46.00;19742.72;5012486;28;20194;-60
2022/06/14 06:47:28;;;;;;;5.07;1.52;;;17.60;99.90;;;-141.84;46.88;19777.25;5013374;28;20187;-63
2022/06/14 06:50:17;;;;;;;3.22;1.42;;;17.50;99.90;;;-141.84;46.26;19720.34;5011473;28;20227;-60
2022/06/14 06:52:56;;;;;;;4.13;1.73;;;17.60;99.90;;;-141.84;45.91;19750.84;5010979;28;20720;-60
2022/06/14 06:55:40;;;;;;;2.88;1.70;;;17.40;99.90;;;-141.84;46.88;19724.41;5010849;28;20221;-60
2022/06/14 06:58:19;;;;;;;4.65;1.50;;;17.50;99.90;;;-141.84;45.64;19748.81;5013476;28;20225;-62
2022/06/14 07:00:52;;;;;;;3.50;1.15;;;17.40;99.90;;;-141.84;44.83;19763.03;5013586;28;20257;-60
2022/06/14 07:03:41;;;;;;;3.58;1.70;;;17.60;99.90;;;-141.84;44.61;19817.91;5013138;28;20302;-60
2022/06/14 07:06:19;;;;;;;2.75;1.65;;;17.80;99.90;;;-141.84;43.34;19838.22;5012947;28;20230;-60
2022/06/14 07:09:00;;;;;;;4.03;1.70;;;18.00;99.90;;;-141.84;44.29;19805.72;5012945;28;20214;-62
2022/06/14 07:11:38;;;;;;;3.75;1.50;;;18.00;99.90;;;-141.84;42.89;19854.50;5013557;28;20281;-59
2022/06/14 07:14:14;;;;;;;5.22;1.50;;;17.90;99.90;;;-141.84;43.96;19836.19;5015744;28;20242;-60
2022/06/14 07:16:52;;;;;;;4.15;1.23;;;18.10;99.90;;;-141.84;42.77;19899.19;5012939;28;20222;-60
2022/06/14 07:19:32;;;;;;;5.03;1.65;;;18.30;99.90;;;-141.84;42.44;19876.84;5013019;28;20314;-61
2022/06/14 07:22:18;;;;;;;3.05;1.73;;;18.20;99.90;;;-141.84;41.98;19909.34;5011823;28;20661;-60
2022/06/14 07:24:58;;;;;;;2.30;1.13;;;18.20;99.90;;;-141.84;41.96;19937.81;5013178;28;20611;-60
2022/06/14 07:27:53;;;;;;;5.15;1.75;;;18.30;99.90;;;-141.84;41.25;20017.09;5012530;28;20661;-60
2022/06/14 07:30:27;;;;;;;3.88;1.75;;;18.70;99.90;;;-141.84;40.07;20134.97;5020010;28;20221;-61
2022/06/14 07:33:01;;;;;;;4.30;1.30;;;19.00;99.90;;;-141.84;39.82;20098.38;5031890;28;20193;-61
2022/06/14 07:35:34;;;;;;;2.58;1.40;;;19.00;99.90;;;-141.84;40.17;20082.13;5033020;28;20623;-60
2022/06/14 07:38:16;;;;;;;3.78;1.40;;;19.10;99.90;;;-141.84;39.25;20094.31;5012938;28;20281;-60
2022/06/14 07:41:00;;;;;;;2.67;1.30;;;19.00;99.90;;;-141.84;39.28;20122.78;5030635;28;20234;-60
2022/06/14 07:43:40;;;;;;;2.60;1.27;;;19.20;99.90;;;-141.84;40.33;20067.88;5032066;28;20720;-61
2022/06/14 07:46:27;;;;;;;5.53;1.30;;;19.00;99.90;;;-141.84;40.12;20037.41;5032383;28;20230;-60
2022/06/14 07:49:04;;;;;;;8.20;1.55;;;19.00;99.90;;;-141.84;41.31;19976.44;5027462;28;20225;-60
2022/06/14 07:51:42;;;;;;;3.35;1.58;;;18.70;99.90;;;-141.84;40.64;20000.81;5031843;28;20264;-60
2022/06/14 07:54:21;;;;;;;2.80;1.48;;;18.80;99.90;;;-141.84;40.38;20029.28;5031983;28;20317;-60
2022/06/14 07:56:55;;;;;;;3.90;1.85;;;19.00;99.90;;;-141.84;40.45;20039.44;5032141;28;20232;-60
2022/06/14 07:59:34;;;;;;;1.92;1.27;;;19.00;99.90;;;-141.84;39.76;20094.31;5032049;28;20288;-59
2022/06/14 08:02:09;;;;;;;4.25;1.50;;;19.00;99.90;;;-141.84;40.67;20019.13;5032235;28;20599;-59
2022/06/14 08:04:42;;;;;;;5.78;1.70;;;18.90;99.90;;;-141.84;40.56;20010.97;5031620;28;20794;-59
2022/06/14 08:07:14;;;;;;;4.65;1.50;;;18.90;99.90;;;-141.84;40.72;19992.69;5031625;28;20316;-59
2022/06/14 08:09:52;;;;;;;4.47;1.50;;;18.80;99.90;;;-141.84;41.29;20025.22;5012803;28;20321;-59
2022/06/14 08:12:32;;;;;;;3.20;1.52;;;18.80;99.90;;;-141.84;41.65;20010.97;5015262;28;20314;-58
2022/06/14 08:15:08;;;;;;;4.82;1.30;;;18.90;99.90;;;-141.84;41.84;20021.16;4992643;28;20279;-60
2022/06/14 08:17:45;;;;;;;3.25;1.75;;;18.90;99.90;;;-141.84;41.38;20039.44;5013997;28;20199;-61
2022/06/14 08:20:24;;;;;;;3.13;1.90;;;18.80;99.90;;;-141.84;41.88;19964.25;5032135;28;20222;-60
2022/06/14 08:22:57;;;;;;;3.42;1.80;;;18.60;99.90;;;-141.84;42.11;19927.66;5031847;28;20709;-59
2022/06/14 08:25:29;;;;;;;4.15;1.90;;;18.50;99.90;;;-141.84;42.02;19945.94;5031454;28;20607;-60
2022/06/14 08:28:06;;;;;;;4.90;1.77;;;18.50;99.90;;;-141.84;41.40;20015.03;5014986;28;20314;-61
2022/06/14 08:30:44;;;;;;;3.75;1.60;;;18.80;99.90;;;-141.84;40.69;20031.31;5020292;28;20261;-60
2022/06/14 08:33:20;;;;;;;6.35;1.83;;;18.60;99.90;;;-141.84;41.12;20053.66;5031211;28;20274;-59
2022/06/14 08:35:53;;;;;;;5.28;2.33;;;18.60;99.90;;;-141.84;41.93;20002.84;5031521;28;20192;-58
2022/06/14 08:38:29;;;;;;;4.32;2.05;;;18.70;99.90;;;-141.84;40.48;20078.06;5031244;28;20304;-58
2022/06/14 08:41:40;;;;;;;3.42;1.90;;;18.80;99.90;;;-141.84;40.47;20080.09;5031009;28;20221;-58
2022/06/14 08:44:15;;;;;;;4.18;1.73;;;19.00;99.90;;;-141.84;40.34;20114.63;5030853;28;20320;-58
2022/06/14 08:47:03;;;;;;;4.30;1.90;;;19.10;99.90;;;-141.84;40.91;20074.00;5030709;28;20253;-58
2022/06/14 08:49:50;;;;;;;5.43;1.80;;;19.10;99.90;;;-141.84;40.39;20110.56;5030543;28;20652;-58
2022/06/14 08:53:08;;;;;;;3.78;1.73;;;19.20;99.90;;;-141.84;40.29;20134.97;5030911;28;20233;-58
2022/06/14 08:56:08;;;;;;;3.45;1.85;;;19.30;99.90;;;-141.84;40.49;20082.13;4984728;28;20237;-60
2022/06/14 08:59:42;;;;;;;4.85;1.80;;;19.40;99.90;;;-141.84;40.62;20090.25;5010773;28;20223;-59
2022/06/14 09:02:49;;;;;;;4.78;1.98;;;19.40;99.90;;;-141.84;39.54;20130.91;4949921;28;20224;-60
2022/06/14 09:05:45;;;;;;;6.65;1.98;;;19.50;99.90;;;-141.84;39.83;20118.69;4990981;28;20235;-59
2022/06/14 09:09:11;;;;;;;3.95;1.98;;;19.30;99.90;;;-141.84;40.34;20067.88;4991033;28;20258;-60
2022/06/14 09:12:19;;;;;;;4.43;1.63;;;19.20;99.90;;;-141.84;39.80;20134.97;4991126;28;20636;-59
2022/06/14 09:15:59;;;;;;;4.68;1.67;;;19.40;99.90;;;-141.84;39.10;20175.63;4991532;28;20254;-60
2022/06/14 09:18:52;;;;;;;4.70;1.80;;;19.70;99.90;;;-141.84;38.85;20236.59;4927032;29;20414;-61
2022/06/14 09:21:33;;;;;;;3.70;1.92;;;20.00;99.90;;;-141.84;38.75;20212.19;4953775;28;20234;-57
2022/06/14 09:24:25;;;;;;;5.18;1.83;;;20.00;99.90;;;-141.84;38.52;20269.13;5029566;28;20202;-57
2022/06/14 09:27:15;;;;;;;4.75;2.20;;;20.00;99.90;;;-141.84;38.69;20206.09;5030938;28;20361;-57
2022/06/14 09:30:20;;;;;;;3.22;1.83;;;19.90;99.90;;;-141.84;39.59;20137.00;5010684;28;20667;-57
2022/06/14 09:33:33;;;;;;;5.40;2.03;;;19.60;99.90;;;-141.84;41.00;20098.38;5024275;28;20253;-59
2022/06/14 09:37:11;;;;;;;3.95;2.08;;;19.50;99.90;;;-141.84;40.36;20124.81;5030361;28;20723;-60
2022/06/14 09:40:06;;;;;;;2.40;1.60;;;19.60;99.90;;;-141.84;38.77;20200.00;4981242;28;20309;-60
2022/06/14 09:43:37;;;;;;;3.88;1.85;;;19.80;99.90;;;-141.84;38.58;20204.06;5030246;28;20244;-60
2022/06/14 09:46:36;;;;;;;3.75;1.85;;;19.80;99.90;;;-141.84;39.59;20124.81;5032970;28;20229;-59
2022/06/14 09:50:04;;;;;;;4.07;2.00;;;19.70;99.90;;;-141.84;40.16;20078.06;5033727;28;20641;-60
2022/06/14 09:53:08;;;;;;;3.17;1.80;;;19.40;99.90;;;-141.84;39.59;20090.25;5009158;28;20316;-60
2022/06/14 09:56:12;;;;;;;5.13;2.00;;;19.40;99.90;;;-141.84;39.51;20086.19;5034023;28;20660;-60
2022/06/14 09:59:21;;;;;;;4.03;1.77;;;19.20;99.90;;;-141.84;40.51;20047.56;5034062;28;20320;-59
2022/06/14 10:02:04;;;;;;;4.07;1.92;;;19.10;99.90;;;-141.84;40.13;20059.75;5034075;28;20232;-60
2022/06/14 10:05:25;;;;;;;3.10;1.63;;;19.10;99.90;;;-141.84;40.29;20084.16;5033737;28;20291;-60
2022/06/14 10:08:31;;;;;;;5.75;1.77;;;19.40;99.90;;;-141.84;38.92;20159.34;5022463;28;20857;-59
2022/06/14 10:11:24;;;;;;;5.10;2.38;;;19.80;99.90;;;-141.84;37.59;20212.19;5030619;28;20236;-58
2022/06/14 10:14:27;;;;;;;5.70;2.60;;;19.80;99.90;;;-141.84;38.67;20167.47;5033624;28;20305;-58
2022/06/14 10:17:23;;;;;;;2.88;1.90;;;19.70;99.90;;;-141.84;39.51;20080.09;5033554;28;20308;-60
2022/06/14 10:20:31;;;;;;;3.40;2.10;;;19.50;99.90;;;-141.84;39.93;20128.88;5013508;28;20248;-60
2022/06/14 10:23:22;;;;;;;5.50;2.03;;;19.40;99.90;;;-141.84;39.18;20171.56;5011929;28;20732;-60
2022/06/14 10:29:24;;;;;;;2.38;1.90;;;19.60;99.90;;;-141.84;37.33;20238.63;5032482;28;20232;-58
2022/06/14 10:32:18;;;;;;;2.05;1.70;;;19.50;99.90;;;-141.84;38.79;20096.34;5032740;28;20312;-60
2022/06/14 10:34:58;;;;;;;4.45;2.10;;;19.50;99.90;;;-141.84;38.75;20137.00;5033528;28;20308;-59
2022/06/14 10:37:54;;;;;;;4.70;1.98;;;19.50;99.90;;;-141.84;39.04;20141.06;5033322;28;20226;-60
2022/06/14 10:40:53;;;;;;;3.22;1.60;;;19.50;99.90;;;-141.84;39.05;20179.69;5033166;28;20226;-58
2022/06/14 10:43:35;;;;;;;3.70;1.80;;;19.80;99.90;;;-141.84;37.55;20265.03;5033150;28;20653;-59
2022/06/14 10:46:13;;;;;;;3.25;2.00;;;19.90;99.90;;;-141.84;36.88;20244.72;5032890;28;20275;-59
2022/06/14 10:49:19;;;;;;;4.05;1.85;;;20.00;99.90;;;-141.84;36.80;20309.75;5033309;28;20245;-59
2022/06/14 10:52:28;;;;;;;5.18;1.95;;;20.20;99.90;;;-141.84;36.36;20358.56;5033386;28;20217;-59
2022/06/14 10:55:21;;;;;;;6.00;1.77;;;20.40;99.90;;;-141.84;37.27;20293.50;5024193;28;20253;-59
2022/06/14 10:58:25;;;;;;;8.50;1.90;;;20.40;99.90;;;-141.84;37.04;20328.06;5030949;28;20232;-60
2022/06/14 11:01:12;;;;;;;5.25;1.95;;;20.30;99.90;;;-141.84;37.24;20334.16;5032803;28;20715;-60
2022/06/14 11:03:56;;;;;;;5.47;2.35;;;20.40;99.90;;;-141.84;36.34;20374.81;5032906;28;20604;-58
2022/06/14 11:07:18;;;;;;;7.57;2.10;;;20.60;99.90;;;-141.84;36.57;20338.22;5031972;28;20225;-60
2022/06/14 11:10:26;;;;;;;7.00;2.25;;;20.60;99.90;;;-141.84;36.16;20372.78;5019110;28;20306;-59
2022/06/14 11:13:10;;;;;;;4.63;2.20;;;20.50;99.90;;;-141.84;36.47;20301.63;5032380;28;20225;-58